K-storm — V2DV8 — position and weather

sailwx.info

Track history (hours):
 
Tides and Currents Weather Stations Pressure Air Temp Water Temp Dewpoint Dewpoint Depression Visibility Wind Speed Wind Dir Waves Ship Positions

K-storm

Last reported at 2015-Mar-27 11:26 UTC. Time now 2015-Mar-27 12:00 UTC.
Position N 26°04' W 080°07'.

Length 139 m; draft 7.6 m.

Type: Ship. MMSI: 305350000.

Date/timePositionNaut miles runAvg speedWind from/ knotsBaromVisibWave heightAir tempDewpointWater temp
2015-Mar-27 11:26N 26°04' W 080°07'0 0.0
2015-Mar-27 10:32N 26°04' W 080°07'0 0.0
2015-Mar-27 09:28N 26°04' W 080°07'0 0.0
2015-Mar-27 08:31N 26°04' W 080°07'0 0.0
2015-Mar-27 07:30N 26°04' W 080°07'0 0.0
2015-Mar-27 06:33N 26°04' W 080°07'0 0.0
2015-Mar-27 05:32N 26°04' W 080°07'0 0.0
2015-Mar-27 04:26N 26°04' W 080°07'0 0.0
2015-Mar-27 03:32N 26°04' W 080°07'0 0.0
2015-Mar-27 02:25N 26°04' W 080°07'0 0.0
2015-Mar-27 01:33N 26°04' W 080°07'7 7.1
2015-Mar-27 00:33N 26°02' W 079°60'1313.4
2015-Mar-26 23:33N 25°49' W 079°58'1615.6
2015-Mar-26 22:33N 25°33' W 079°58'  
2015-Mar-21 16:33N 25°07' W 080°08'1514.6
2015-Mar-21 15:33N 25°21' W 080°03'1413.8
2015-Mar-21 14:34N 25°35' W 080°02'1413.6
2015-Mar-21 13:33N 25°48' W 080°02'1413.7
2015-Mar-21 12:33N 26°02' W 080°03'4 3.0
2015-Mar-21 11:08N 26°04' W 080°07'0 0.0
2015-Mar-21 10:32N 26°04' W 080°07'0 0.0
2015-Mar-21 09:32N 26°04' W 080°07'0 0.0
2015-Mar-21 08:22N 26°04' W 080°07'0 0.0
2015-Mar-21 07:31N 26°04' W 080°07'0 0.0
2015-Mar-21 06:27N 26°04' W 080°07'0 0.0
2015-Mar-21 05:33N 26°04' W 080°07'0 0.0
2015-Mar-21 04:11N 26°04' W 080°07'0 0.0
2015-Mar-21 03:20N 26°04' W 080°07'0 0.0
2015-Mar-21 02:29N 26°04' W 080°07'0 0.0
2015-Mar-21 01:19N 26°04' W 080°07'0 0.0
2015-Mar-21 00:31N 26°04' W 080°07'0 0.0
2015-Mar-20 23:24N 26°04' W 080°07'0 0.0
2015-Mar-20 22:18N 26°04' W 080°07'0 0.0
2015-Mar-20 21:26N 26°04' W 080°07'0 0.0
2015-Mar-20 20:32N 26°04' W 080°07'0 0.0
2015-Mar-20 19:28N 26°04' W 080°07'0 0.0
2015-Mar-20 18:22N 26°04' W 080°07'0 0.0
2015-Mar-20 17:31N 26°04' W 080°07'0 0.0
2015-Mar-20 16:21N 26°04' W 080°07'0 0.0
2015-Mar-20 15:33N 26°04' W 080°07'0 0.0
2015-Mar-20 14:26N 26°04' W 080°07'0 0.0
2015-Mar-20 13:32N 26°04' W 080°07'0 0.0
2015-Mar-20 12:28N 26°04' W 080°07'0 0.0
2015-Mar-20 11:16N 26°04' W 080°07'0 0.0
2015-Mar-20 10:31N 26°04' W 080°07'0 0.0
2015-Mar-20 09:21N 26°04' W 080°07'0 0.0
2015-Mar-20 08:33N 26°04' W 080°07'0 0.0
2015-Mar-20 07:26N 26°04' W 080°07'0 0.0
2015-Mar-20 06:32N 26°04' W 080°07'0 0.0
2015-Mar-20 05:25N 26°04' W 080°07'0 0.0
2015-Mar-20 04:31N 26°04' W 080°07'0 0.0
2015-Mar-20 03:31N 26°04' W 080°07'0 0.0
2015-Mar-20 02:33N 26°04' W 080°07'0 0.0
2015-Mar-20 01:33N 26°04' W 080°07'0 0.0
2015-Mar-20 00:26N 26°04' W 080°07'0 0.0
2015-Mar-19 23:32N 26°04' W 080°07'0 0.0
2015-Mar-19 22:28N 26°04' W 080°07'0 0.0
2015-Mar-19 21:31N 26°04' W 080°07'0 0.0
2015-Mar-19 20:31N 26°04' W 080°07'0 0.1
2015-Mar-19 19:33N 26°04' W 080°07'0 0.0
2015-Mar-19 18:30N 26°04' W 080°07'0 0.0
2015-Mar-19 17:23N 26°04' W 080°07'0 0.0
2015-Mar-19 16:32N 26°04' W 080°07'0 0.0
2015-Mar-19 15:28N 26°04' W 080°07'0 0.0
2015-Mar-19 14:31N 26°04' W 080°07'0 0.0
2015-Mar-19 13:30N 26°04' W 080°07'0 0.0
2015-Mar-19 12:33N 26°04' W 080°07'0 0.0
2015-Mar-19 11:30N 26°04' W 080°07'0 0.0
2015-Mar-19 10:33N 26°04' W 080°07'3 3.3
2015-Mar-19 09:33N 26°05' W 080°04'10 9.7
2015-Mar-19 08:33N 26°00' W 079°54'1010.0
2015-Mar-19 07:33N 25°52' W 079°48'1110.9
2015-Mar-19 06:33N 25°43' W 079°41'1211.7
2015-Mar-19 05:32N 25°31' W 079°39'  
Track history (hours):
 
Tides and Currents Weather Stations Pressure Air Temp Water Temp Dewpoint Dewpoint Depression Visibility Wind Speed Wind Dir Waves Ship Positions

K-storm

Last reported at 2015-Mar-27 11:26 UTC. Time now 2015-Mar-27 12:00 UTC.
Position N 26°04' W 080°07'.

Length 139 m; draft 7.6 m.

Type: Ship. MMSI: 305350000.

Date/timePositionNaut miles runAvg speedWind from/ knotsBaromVisibWave heightAir tempDewpointWater temp
2015-Mar-27 11:26N 26°04' W 080°07'0 0.0
2015-Mar-27 10:32N 26°04' W 080°07'0 0.0
2015-Mar-27 09:28N 26°04' W 080°07'0 0.0
2015-Mar-27 08:31N 26°04' W 080°07'0 0.0
2015-Mar-27 07:30N 26°04' W 080°07'0 0.0
2015-Mar-27 06:33N 26°04' W 080°07'0 0.0
2015-Mar-27 05:32N 26°04' W 080°07'0 0.0
2015-Mar-27 04:26N 26°04' W 080°07'0 0.0
2015-Mar-27 03:32N 26°04' W 080°07'0 0.0
2015-Mar-27 02:25N 26°04' W 080°07'0 0.0
2015-Mar-27 01:33N 26°04' W 080°07'7 7.1
2015-Mar-27 00:33N 26°02' W 079°60'1313.4
2015-Mar-26 23:33N 25°49' W 079°58'1615.6
2015-Mar-26 22:33N 25°33' W 079°58'  
2015-Mar-21 16:33N 25°07' W 080°08'1514.6
2015-Mar-21 15:33N 25°21' W 080°03'1413.8
2015-Mar-21 14:34N 25°35' W 080°02'1413.6
2015-Mar-21 13:33N 25°48' W 080°02'1413.7
2015-Mar-21 12:33N 26°02' W 080°03'4 3.0
2015-Mar-21 11:08N 26°04' W 080°07'0 0.0
2015-Mar-21 10:32N 26°04' W 080°07'0 0.0
2015-Mar-21 09:32N 26°04' W 080°07'0 0.0
2015-Mar-21 08:22N 26°04' W 080°07'0 0.0
2015-Mar-21 07:31N 26°04' W 080°07'0 0.0
2015-Mar-21 06:27N 26°04' W 080°07'0 0.0
2015-Mar-21 05:33N 26°04' W 080°07'0 0.0
2015-Mar-21 04:11N 26°04' W 080°07'0 0.0
2015-Mar-21 03:20N 26°04' W 080°07'0 0.0
2015-Mar-21 02:29N 26°04' W 080°07'0 0.0
2015-Mar-21 01:19N 26°04' W 080°07'0 0.0
2015-Mar-21 00:31N 26°04' W 080°07'0 0.0
2015-Mar-20 23:24N 26°04' W 080°07'0 0.0
2015-Mar-20 22:18N 26°04' W 080°07'0 0.0
2015-Mar-20 21:26N 26°04' W 080°07'0 0.0
2015-Mar-20 20:32N 26°04' W 080°07'0 0.0
2015-Mar-20 19:28N 26°04' W 080°07'0 0.0
2015-Mar-20 18:22N 26°04' W 080°07'0 0.0
2015-Mar-20 17:31N 26°04' W 080°07'0 0.0
2015-Mar-20 16:21N 26°04' W 080°07'0 0.0
2015-Mar-20 15:33N 26°04' W 080°07'0 0.0
2015-Mar-20 14:26N 26°04' W 080°07'0 0.0
2015-Mar-20 13:32N 26°04' W 080°07'0 0.0
2015-Mar-20 12:28N 26°04' W 080°07'0 0.0
2015-Mar-20 11:16N 26°04' W 080°07'0 0.0
2015-Mar-20 10:31N 26°04' W 080°07'0 0.0
2015-Mar-20 09:21N 26°04' W 080°07'0 0.0
2015-Mar-20 08:33N 26°04' W 080°07'0 0.0
2015-Mar-20 07:26N 26°04' W 080°07'0 0.0
2015-Mar-20 06:32N 26°04' W 080°07'0 0.0
2015-Mar-20 05:25N 26°04' W 080°07'0 0.0
2015-Mar-20 04:31N 26°04' W 080°07'0 0.0
2015-Mar-20 03:31N 26°04' W 080°07'0 0.0
2015-Mar-20 02:33N 26°04' W 080°07'0 0.0
2015-Mar-20 01:33N 26°04' W 080°07'0 0.0
2015-Mar-20 00:26N 26°04' W 080°07'0 0.0
2015-Mar-19 23:32N 26°04' W 080°07'0 0.0
2015-Mar-19 22:28N 26°04' W 080°07'0 0.0
2015-Mar-19 21:31N 26°04' W 080°07'0 0.0
2015-Mar-19 20:31N 26°04' W 080°07'0 0.1
2015-Mar-19 19:33N 26°04' W 080°07'0 0.0
2015-Mar-19 18:30N 26°04' W 080°07'0 0.0
2015-Mar-19 17:23N 26°04' W 080°07'0 0.0
2015-Mar-19 16:32N 26°04' W 080°07'0 0.0
2015-Mar-19 15:28N 26°04' W 080°07'0 0.0
2015-Mar-19 14:31N 26°04' W 080°07'0 0.0
2015-Mar-19 13:30N 26°04' W 080°07'0 0.0
2015-Mar-19 12:33N 26°04' W 080°07'0 0.0
2015-Mar-19 11:30N 26°04' W 080°07'0 0.0
2015-Mar-19 10:33N 26°04' W 080°07'3 3.3
2015-Mar-19 09:33N 26°05' W 080°04'10 9.7
2015-Mar-19 08:33N 26°00' W 079°54'1010.0
2015-Mar-19 07:33N 25°52' W 079°48'1110.9
2015-Mar-19 06:33N 25°43' W 079°41'1211.7
2015-Mar-19 05:32N 25°31' W 079°39'  

Dump ship's entire track history